Time;durP1;ratioP1;P1;durP2;ratioP2;P2;SDS_P1;SDS_P2;PMS_P1;PMS_P2;Temp;Humidity;BMP_temperature;BMP_pressure;BME280_temperature;BME280_humidity;BME280_pressure;Samples;Min_cycle;Max_cycle;Signal;HPM_P1;HPM_P2
2022/07/19 00:00:11;;;;;;;3.40;2.97;;;;;;;17.44;75.62;97695.75;5009412;28;20049;-64
2022/07/19 00:02:38;;;;;;;5.57;3.03;;;;;;;16.99;75.78;97634.91;5007856;28;20050;-63
2022/07/19 00:05:07;;;;;;;2.72;2.53;;;;;;;17.22;75.80;97670.91;5008337;28;20049;-62
2022/07/19 00:07:34;;;;;;;2.92;2.40;;;;;;;16.94;75.27;97620.47;5006049;28;20076;-61
2022/07/19 00:10:03;;;;;;;3.00;2.65;;;;;;;17.21;75.57;97677.72;5007400;28;20049;-60
2022/07/19 00:12:30;;;;;;;2.70;2.60;;;;;;;17.28;75.82;97691.69;5011732;28;20057;-61
2022/07/19 00:14:57;;;;;;;3.03;2.72;;;;;;;16.86;75.96;97641.25;5008973;28;20052;-64
2022/07/19 00:17:23;;;;;;;3.05;2.75;;;;;;;17.08;76.36;97690.47;5011094;28;20064;-61
2022/07/19 00:19:50;;;;;;;4.47;2.80;;;;;;;16.54;77.22;97630.78;5007976;28;20244;-60
2022/07/19 00:22:17;;;;;;;2.83;2.63;;;;;;;16.70;78.82;97688.38;5006209;28;20057;-61
2022/07/19 00:24:44;;;;;;;5.13;3.05;;;;;;;16.13;79.51;97614.63;5004791;28;20081;-61
2022/07/19 00:27:10;;;;;;;2.75;2.55;;;;;;;16.39;79.90;97662.66;5011627;28;20057;-60
2022/07/19 00:29:37;;;;;;;3.40;2.50;;;;;;;16.31;79.79;97644.25;5006355;28;20077;-60
2022/07/19 00:32:05;;;;;;;3.30;3.00;;;;;;;16.56;79.49;97678.75;5011543;28;20061;-65
2022/07/19 00:34:31;;;;;;;6.38;3.08;;;;;;;16.59;79.19;97671.56;5006797;28;20076;-62
2022/07/19 00:36:58;;;;;;;3.40;3.10;;;;;;;16.39;79.17;97645.88;5014984;28;20053;-63
2022/07/19 00:39:25;;;;;;;5.30;2.58;;;;;;;16.09;78.94;97591.44;5024993;28;20053;-62
2022/07/19 00:41:51;;;;;;;2.88;2.67;;;;;;;16.18;79.60;97634.63;5015019;28;20079;-61
2022/07/19 00:44:21;;;;;;;6.97;2.83;;;;;;;16.41;79.52;97671.47;5025210;28;20056;-60
2022/07/19 00:46:48;;;;;;;3.55;2.80;;;;;;;15.97;78.90;97600.97;5013821;28;20065;-62
2022/07/19 00:49:15;;;;;;;2.88;2.58;;;;;;;16.33;79.71;97685.78;5006073;28;20049;-62
2022/07/19 00:51:43;;;;;;;2.80;2.60;;;;;;;15.69;79.62;97572.91;5020163;28;20067;-64
2022/07/19 00:54:12;;;;;;;4.30;2.60;;;;;;;16.30;79.66;97673.41;5006132;28;20053;-63
2022/07/19 00:56:42;;;;;;;3.10;2.80;;;;;;;16.32;79.34;97667.41;5008444;28;20053;-61
2022/07/19 00:59:10;;;;;;;2.85;2.60;;;;;;;16.30;79.62;97669.81;5006503;28;20049;-61
2022/07/19 01:01:37;;;;;;;2.60;2.40;;;;;;;16.30;79.46;97665.03;5015583;28;20061;-62
2022/07/19 01:04:04;;;;;;;3.30;2.60;;;;;;;16.18;79.84;97665.38;5006844;28;20834;-62
2022/07/19 01:06:31;;;;;;;2.80;2.60;;;;;;;16.06;80.71;97660.09;5011647;28;20132;-61
2022/07/19 01:08:58;;;;;;;2.80;2.60;;;;;;;15.82;80.46;97609.69;5006174;28;20062;-62
2022/07/19 01:11:25;;;;;;;2.92;2.70;;;;;;;16.07;80.58;97650.53;5011670;28;20057;-62
2022/07/19 01:13:51;;;;;;;3.47;3.03;;;;;;;15.98;80.81;97652.88;5005971;28;20054;-61
2022/07/19 01:16:19;;;;;;;3.25;2.38;;;;;;;15.95;81.33;97653.66;5013517;28;20089;-62
2022/07/19 01:18:46;;;;;;;4.00;2.55;;;;;;;15.77;81.90;97635.19;5009028;28;20058;-62
2022/07/19 01:21:19;;;;;;;3.00;2.80;;;;;;;15.88;81.78;97650.03;5011136;28;20058;-62
2022/07/19 01:23:45;;;;;;;3.90;2.58;;;;;;;15.90;81.89;97665.19;5005642;28;20588;-61
2022/07/19 01:26:12;;;;;;;3.67;2.42;;;;;;;15.59;81.38;97589.56;5009792;28;20069;-62
2022/07/19 01:28:39;;;;;;;3.10;2.80;;;;;;;15.76;81.53;97623.19;5005815;28;20084;-62
2022/07/19 01:31:05;;;;;;;2.55;2.33;;;;;;;15.91;81.30;97647.25;5008636;28;20061;-61
2022/07/19 01:33:45;;;;;;;2.95;2.75;;;;;;;15.93;80.66;97642.06;5004504;28;20066;-62
2022/07/19 01:36:12;;;;;;;2.90;2.70;;;;;;;15.47;80.88;97573.97;5010376;28;20058;-61
2022/07/19 01:38:39;;;;;;;5.20;2.80;;;;;;;15.06;81.90;97555.69;5005849;28;20054;-61
2022/07/19 01:41:07;;;;;;;2.63;2.42;;;;;;;15.66;82.51;97651.88;5010465;28;20061;-60
2022/07/19 01:43:34;;;;;;;3.55;2.60;;;;;;;15.49;81.83;97598.69;5005430;28;20134;-60
2022/07/19 01:46:02;;;;;;;4.38;2.47;;;;;;;15.77;81.97;97651.94;5010299;28;20057;-62
2022/07/19 01:48:29;;;;;;;3.83;2.88;;;;;;;15.76;82.07;97645.53;5005327;28;20145;-61
2022/07/19 01:50:56;;;;;;;4.70;3.03;;;;;;;15.64;81.67;97631.91;5014112;28;20059;-61
2022/07/19 01:53:23;;;;;;;3.92;3.00;;;;;;;15.10;81.74;97551.75;5009087;28;20061;-60
2022/07/19 01:55:49;;;;;;;7.07;2.90;;;;;;;15.60;82.05;97641.47;5008867;28;20050;-61
2022/07/19 01:58:17;;;;;;;3.40;2.63;;;;;;;15.46;82.69;97625.38;5005579;28;20054;-61
2022/07/19 02:00:44;;;;;;;3.08;2.80;;;;;;;15.52;82.86;97662.97;5010024;28;20060;-62
2022/07/19 02:03:11;;;;;;;3.15;2.50;;;;;;;15.47;83.58;97646.56;5004034;28;20057;-60
2022/07/19 02:05:38;;;;;;;4.53;2.80;;;;;;;15.43;83.42;97642.91;5010797;28;20058;-62
2022/07/19 02:08:06;;;;;;;3.60;2.40;;;;;;;15.49;83.77;97646.16;5004577;28;20243;-61
2022/07/19 02:10:33;;;;;;;2.78;2.58;;;;;;;15.32;83.44;97625.25;5008345;28;20563;-61
2022/07/19 02:12:59;;;;;;;2.83;2.40;;;;;;;15.31;83.93;97657.16;5006332;28;20424;-62
2022/07/19 02:15:26;;;;;;;6.30;2.70;;;;;;;15.01;84.08;97603.47;5008285;28;20053;-61
2022/07/19 02:17:53;;;;;;;3.50;2.40;;;;;;;15.28;84.18;97649.56;5006715;28;20472;-61
2022/07/19 02:20:19;;;;;;;2.88;2.67;;;;;;;15.25;84.40;97652.31;5023150;28;20076;-64
2022/07/19 02:22:46;;;;;;;4.72;2.35;;;;;;;14.82;84.42;97578.59;5008105;28;20424;-61
2022/07/19 02:25:13;;;;;;;2.88;2.60;;;;;;;15.33;84.13;97660.38;5006621;28;20112;-61
2022/07/19 02:27:41;;;;;;;2.90;2.60;;;;;;;15.32;83.82;97652.41;5006635;28;20444;-61
2022/07/19 02:30:11;;;;;;;3.67;2.83;;;;;;;15.04;83.55;97669.66;5004797;28;20046;-60
2022/07/19 02:32:39;;;;;;;3.90;2.92;;;;;;;15.15;83.38;97631.50;5005074;28;20148;-62
2022/07/19 02:35:07;;;;;;;2.45;2.20;;;;;;;14.84;83.73;97601.34;5004027;28;20056;-60
2022/07/19 02:37:33;;;;;;;4.60;2.22;;;;;;;15.22;83.72;97648.31;5005084;28;20066;-63
2022/07/19 02:40:00;;;;;;;2.80;2.60;;;;;;;15.15;83.42;97654.63;5005800;28;20107;-61
2022/07/19 02:42:27;;;;;;;3.42;3.15;;;;;;;14.93;83.19;97618.56;5008953;28;20069;-63
2022/07/19 02:44:53;;;;;;;3.53;2.97;;;;;;;14.73;83.42;97597.66;5005560;28;20057;-62
2022/07/19 02:47:20;;;;;;;3.83;3.30;;;;;;;15.03;83.91;97659.72;5009046;28;20300;-62
2022/07/19 02:49:47;;;;;;;5.28;3.65;;;;;;;14.57;83.47;97572.00;5003316;28;20054;-61
2022/07/19 02:52:13;;;;;;;6.60;3.47;;;;;;;14.76;83.56;97614.38;5018645;28;20513;-61
2022/07/19 02:54:40;;;;;;;4.93;3.42;;;;;;;14.99;83.67;97656.06;5004643;28;20583;-61
2022/07/19 02:57:07;;;;;;;4.47;3.88;;;;;;;14.47;84.39;97589.41;5009634;28;20053;-64
2022/07/19 02:59:33;;;;;;;3.85;3.22;;;;;;;14.97;84.59;97658.44;5004847;28;20092;-60
2022/07/19 03:02:00;;;;;;;3.97;3.10;;;;;;;14.96;84.49;97663.22;5010589;28;20496;-61
2022/07/19 03:04:27;;;;;;;6.47;3.65;;;;;;;15.08;83.96;97662.13;5008499;28;20049;-62
2022/07/19 03:06:54;;;;;;;2.95;2.75;;;;;;;14.99;83.98;97644.91;5013255;28;20060;-61
2022/07/19 03:09:21;;;;;;;3.22;2.55;;;;;;;15.04;83.87;97658.50;5008343;28;20085;-60
2022/07/19 03:11:48;;;;;;;6.28;2.88;;;;;;;14.73;84.30;97625.53;5012990;28;20148;-61
2022/07/19 03:14:14;;;;;;;4.25;2.70;;;;;;;14.91;84.28;97659.97;5006721;28;20054;-61
2022/07/19 03:16:41;;;;;;;3.45;2.67;;;;;;;14.66;85.22;97643.00;5013063;28;20046;-60
2022/07/19 03:19:08;;;;;;;3.38;2.88;;;;;;;14.94;84.71;97687.09;5008180;28;20580;-62
2022/07/19 03:21:35;;;;;;;4.75;2.72;;;;;;;15.03;83.58;97662.50;5012855;28;20046;-61
2022/07/19 03:24:03;;;;;;;3.97;3.08;;;;;;;15.06;83.69;97667.31;5008221;28;20133;-61
2022/07/19 03:26:29;;;;;;;2.92;2.60;;;;;;;15.01;83.85;97664.88;5013511;28;20046;-61
2022/07/19 03:28:56;;;;;;;2.50;2.30;;;;;;;15.01;83.53;97664.88;5007907;28;20057;-62
2022/07/19 03:31:23;;;;;;;4.20;2.83;;;;;;;14.82;83.39;97626.81;5013585;28;20536;-61
2022/07/19 03:33:50;;;;;;;3.28;3.00;;;;;;;14.75;82.47;97592.47;5008106;28;20093;-62
2022/07/19 03:36:17;;;;;;;4.45;2.47;;;;;;;15.15;82.50;97662.19;5013814;28;20064;-61
2022/07/19 03:38:43;;;;;;;2.97;2.75;;;;;;;15.25;81.89;97672.66;5011191;28;20104;-62
2022/07/19 03:41:10;;;;;;;5.05;2.85;;;;;;;15.33;81.92;97670.72;5013192;28;20440;-62
2022/07/19 03:43:38;;;;;;;3.35;3.05;;;;;;;15.16;81.54;97633.91;5007768;28;20054;-62
2022/07/19 03:46:04;;;;;;;5.30;2.90;;;;;;;15.19;82.12;97657.44;5013197;28;20479;-62
2022/07/19 03:48:31;;;;;;;4.05;2.90;;;;;;;15.34;81.89;97673.13;5010807;28;20436;-62
2022/07/19 03:50:58;;;;;;;2.90;2.65;;;;;;;15.48;81.74;97667.69;5013052;28;20103;-62
2022/07/19 03:53:24;;;;;;;3.13;2.85;;;;;;;15.25;80.46;97597.31;5008037;28;20060;-62
2022/07/19 03:55:51;;;;;;;4.60;2.90;;;;;;;15.23;79.51;97588.50;5012461;28;20507;-62
2022/07/19 03:58:18;;;;;;;3.45;3.15;;;;;;;15.45;80.28;97615.44;5007527;28;20054;-62
2022/07/19 04:00:45;;;;;;;3.28;2.72;;;;;;;15.48;79.92;97606.28;5012539;28;20068;-63
2022/07/19 04:03:12;;;;;;;4.28;2.80;;;;;;;16.02;78.88;97676.06;5007046;28;20054;-62
2022/07/19 04:05:39;;;;;;;4.40;3.25;;;;;;;16.13;78.56;97674.13;5007298;28;20050;-62
2022/07/19 04:08:06;;;;;;;4.57;3.40;;;;;;;16.29;77.53;97674.59;5006123;28;20129;-63
2022/07/19 04:10:33;;;;;;;5.82;3.47;;;;;;;16.39;77.07;97681.44;5010847;28;20058;-62
2022/07/19 04:12:59;;;;;;;4.63;3.10;;;;;;;16.37;77.07;97675.44;5007840;28;20120;-63
2022/07/19 04:15:26;;;;;;;7.15;3.13;;;;;;;16.61;75.86;97686.75;5010455;28;20045;-63
2022/07/19 04:17:53;;;;;;;6.35;3.08;;;;;;;16.59;75.41;97671.56;5008939;28;20061;-62
2022/07/19 04:20:19;;;;;;;4.03;2.75;;;;;;;16.19;75.31;97630.63;5024865;28;20049;-62
2022/07/19 04:22:46;;;;;;;3.60;3.15;;;;;;;16.35;75.70;97633.88;5009089;28;20056;-61
2022/07/19 04:25:13;;;;;;;6.60;3.20;;;;;;;16.57;74.71;97646.78;5007610;28;20053;-63
2022/07/19 04:27:39;;;;;;;5.70;3.55;;;;;;;16.98;74.26;97699.66;5009706;28;20513;-63
2022/07/19 04:30:07;;;;;;;4.00;3.55;;;;;;;16.98;73.90;97666.06;5005271;28;20065;-61
2022/07/19 04:32:34;;;;;;;4.43;3.00;;;;;;;17.14;73.36;97663.69;5006943;28;20064;-62
2022/07/19 04:35:01;;;;;;;5.93;3.47;;;;;;;17.39;73.02;97681.31;5006947;28;20050;-62
2022/07/19 04:37:28;;;;;;;5.03;3.63;;;;;;;17.63;71.90;97681.34;5006901;28;20080;-61
2022/07/19 04:39:54;;;;;;;4.63;3.95;;;;;;;17.30;71.50;97608.09;5006539;28;20068;-63
2022/07/19 04:42:21;;;;;;;5.95;3.47;;;;;;;17.56;71.25;97644.16;5006691;28;20072;-62
2022/07/19 04:44:48;;;;;;;9.75;3.40;;;;;;;17.97;70.52;97685.31;5006307;28;20521;-62
2022/07/19 04:47:15;;;;;;;6.45;3.47;;;;;;;18.09;69.70;97670.06;5011149;28;20063;-60
2022/07/19 04:49:41;;;;;;;3.92;3.65;;;;;;;18.17;69.16;97671.66;5006056;28;20063;-62
2022/07/19 04:52:08;;;;;;;6.75;3.50;;;;;;;18.36;69.01;97673.19;5011160;28;20448;-63
2022/07/19 04:54:35;;;;;;;11.82;4.97;;;;;;;18.16;68.36;97605.56;5006776;28;20356;-61
2022/07/19 04:57:01;;;;;;;8.88;4.00;;;;;;;18.35;67.95;97624.72;5011272;28;20445;-63
2022/07/19 04:59:28;;;;;;;3.92;3.25;;;;;;;18.85;66.42;97670.22;5006491;28;20060;-62
2022/07/19 05:01:55;;;;;;;4.28;3.10;;;;;;;18.60;66.38;97652.69;5011179;28;20061;-61
2022/07/19 05:04:22;;;;;;;9.20;3.95;;;;;;;18.91;65.98;97683.41;5006737;28;20054;-63
2022/07/19 05:06:51;;;;;;;6.30;3.78;;;;;;;19.00;65.51;97678.13;5011028;28;20065;-63
2022/07/19 05:09:18;;;;;;;7.53;3.90;;;;;;;19.13;65.10;97675.66;5006189;28;20176;-62
2022/07/19 05:11:45;;;;;;;21.77;4.40;;;;;;;19.01;64.50;97626.41;5009147;28;20085;-64
2022/07/19 05:14:12;;;;;;;8.20;4.72;;;;;;;19.34;64.52;97667.94;5005730;28;20331;-63
2022/07/19 05:16:39;;;;;;;9.43;3.88;;;;;;;19.28;64.68;97638.66;5014438;28;20046;-61
2022/07/19 05:19:06;;;;;;;8.43;4.13;;;;;;;18.87;64.01;97564.72;5007429;28;20060;-63
2022/07/19 05:21:33;;;;;;;5.60;3.45;;;;;;;19.52;63.95;97643.28;5010473;28;20062;-63
2022/07/19 05:24:01;;;;;;;8.18;4.97;;;;;;;19.82;63.63;97681.19;5006009;28;20435;-63
2022/07/19 05:26:28;;;;;;;8.30;4.43;;;;;;;19.83;64.20;97663.91;5011873;28;20065;-61
2022/07/19 05:28:54;;;;;;;11.40;3.90;;;;;;;20.08;65.10;97680.50;5006021;28;20058;-64
2022/07/19 05:31:21;;;;;;;7.25;3.97;;;;;;;20.18;65.28;97672.00;5010639;28;20046;-63
2022/07/19 05:33:48;;;;;;;7.97;5.82;;;;;;;20.15;65.86;97649.53;5005615;28;20053;-61
2022/07/19 05:36:14;;;;;;;6.93;4.65;;;;;;;20.39;65.43;97668.16;5011304;28;20518;-63
2022/07/19 05:38:41;;;;;;;8.05;4.28;;;;;;;20.42;64.98;97670.13;5036058;28;20053;-63
2022/07/19 05:41:10;;;;;;;9.23;4.72;;;;;;;20.24;64.43;97613.25;5010084;28;20050;-64
2022/07/19 05:43:38;;;;;;;6.43;4.05;;;;;;;20.76;63.74;97665.28;5005271;28;20561;-63
2022/07/19 05:46:05;;;;;;;7.25;4.00;;;;;;;20.95;62.26;97661.81;5009994;28;20053;-63
2022/07/19 05:48:32;;;;;;;5.80;4.05;;;;;;;20.80;61.13;97623.81;5009915;28;20115;-64
2022/07/19 05:50:59;;;;;;;7.32;4.05;;;;;;;21.30;60.95;97661.31;5005422;28;20057;-62
2022/07/19 05:53:27;;;;;;;5.68;4.10;;;;;;;21.53;60.17;97658.53;5023258;28;20076;-61
2022/07/19 05:55:55;;;;;;;9.60;4.25;;;;;;;21.55;59.89;97664.53;5022962;28;20045;-64
2022/07/19 05:58:23;;;;;;;4.70;3.97;;;;;;;21.87;59.57;97653.56;5024272;28;20500;-63
2022/07/19 06:03:36;;;;;;;5.35;3.70;;;;;;;22.04;58.83;97657.28;5024308;28;20052;-61
2022/07/19 06:06:02;;;;;;;9.23;4.45;;;;;;;21.94;57.98;97591.34;5017950;28;20083;-63
2022/07/19 06:08:29;;;;;;;8.00;5.15;;;;;;;22.32;57.56;97649.06;5003903;28;20050;-63
2022/07/19 06:10:56;;;;;;;9.32;4.10;;;;;;;22.26;57.03;97636.69;5009344;28;20053;-63
2022/07/19 06:13:23;;;;;;;12.75;4.50;;;;;;;22.52;55.22;97642.66;5013019;28;20061;-64
2022/07/19 06:15:49;;;;;;;7.75;3.83;;;;;;;22.10;55.24;97585.81;5020917;28;20423;-63
2022/07/19 06:18:17;;;;;;;7.07;3.95;;;;;;;22.37;54.16;97569.53;5003765;28;20123;-62
2022/07/19 06:20:46;;;;;;;5.90;4.47;;;;;;;23.10;53.28;97633.31;5007398;28;20064;-63
2022/07/19 06:23:13;;;;;;;5.78;4.50;;;;;;;23.41;51.65;97631.81;5005046;28;20058;-64
2022/07/19 06:25:45;;;;;;;5.43;3.97;;;;;;;23.42;49.19;97599.47;5007305;28;20052;-64
2022/07/19 06:28:12;;;;;;;9.15;4.53;;;;;;;23.69;49.16;97603.63;5004987;28;20299;-63
2022/07/19 06:30:39;;;;;;;7.32;4.57;;;;;;;24.09;47.11;97632.50;5009209;28;20328;-61
2022/07/19 06:33:06;;;;;;;4.65;4.35;;;;;;;24.25;46.57;97632.47;5003378;28;20054;-62
2022/07/19 06:35:33;;;;;;;4.50;4.10;;;;;;;24.05;45.23;97563.88;5008919;28;20088;-62
2022/07/19 06:38:00;;;;;;;4.80;4.28;;;;;;;24.10;43.00;97594.47;5007801;28;20050;-63
2022/07/19 06:40:27;;;;;;;5.15;4.55;;;;;;;24.58;42.97;97613.34;5010172;28;20041;-63
2022/07/19 06:42:54;;;;;;;5.63;4.93;;;;;;;24.92;41.45;97628.53;5008620;28;20144;-61
2022/07/19 06:45:20;;;;;;;4.43;3.88;;;;;;;24.58;39.41;97625.44;5024050;28;20618;-62
2022/07/19 06:47:47;;;;;;;6.32;4.45;;;;;;;24.98;38.02;97626.72;5010824;28;20440;-62
2022/07/19 06:50:14;;;;;;;7.72;4.60;;;;;;;24.91;38.26;97626.91;5010284;28;20491;-63
2022/07/19 06:53:00;;;;;;;4.45;3.88;;;;;;;25.05;38.15;97622.88;5010036;28;20053;-62
2022/07/19 06:55:27;;;;;;;8.07;4.47;;;;;;;25.25;37.35;97627.09;5010465;28;21013;-59
2022/07/19 06:57:54;;;;;;;4.22;3.85;;;;;;;25.49;36.45;97635.28;5008811;28;20054;-61
2022/07/19 07:00:21;;;;;;;5.15;4.25;;;;;;;25.63;35.38;97626.28;5008076;28;20547;-64
2022/07/19 07:02:48;;;;;;;4.13;3.90;;;;;;;25.11;35.29;97524.66;5021559;28;20056;-62
2022/07/19 07:05:14;;;;;;;4.72;4.38;;;;;;;25.59;33.33;97568.88;5019615;28;20054;-66
2022/07/19 07:07:41;;;;;;;4.50;4.20;;;;;;;26.11;31.81;97626.69;5014714;28;20050;-63
2022/07/19 07:10:09;;;;;;;4.85;4.30;;;;;;;25.51;32.94;97590.22;5011271;28;20132;-61
2022/07/19 07:12:37;;;;;;;4.47;4.18;;;;;;;26.10;33.19;97624.28;5020527;28;20132;-64
2022/07/19 07:15:06;;;;;;;4.00;3.80;;;;;;;25.53;32.37;97548.00;5015399;28;20056;-62
2022/07/19 07:17:34;;;;;;;6.00;4.20;;;;;;;25.70;32.63;97626.06;5017813;28;20057;-67
2022/07/19 07:20:03;;;;;;;5.10;4.47;;;;;;;25.59;32.92;97572.50;5016194;28;20061;-67
2022/07/19 07:22:30;;;;;;;4.75;4.38;;;;;;;24.83;33.26;97560.34;5015421;28;20050;-61
2022/07/19 07:24:57;;;;;;;4.22;3.80;;;;;;;25.16;33.46;97623.34;5016432;28;20057;-61
2022/07/19 07:27:25;;;;;;;5.32;4.82;;;;;;;25.45;33.87;97623.25;5014561;28;20602;-61
2022/07/19 07:29:51;;;;;;;6.35;4.88;;;;;;;25.85;32.74;97621.50;5019507;28;20228;-67
2022/07/19 07:32:18;;;;;;;8.65;6.43;;;;;;;26.10;32.78;97621.44;5010084;28;20050;-65
2022/07/19 07:34:45;;;;;;;4.70;4.43;;;;;;;25.54;32.18;97612.00;5008466;28;20060;-61
2022/07/19 07:37:12;;;;;;;5.80;3.97;;;;;;;25.24;33.41;97616.97;5012077;28;20054;-61
2022/07/19 07:39:39;;;;;;;5.20;4.70;;;;;;;25.71;32.92;97611.41;5008196;28;20086;-61
2022/07/19 07:42:06;;;;;;;8.20;5.72;;;;;;;25.97;32.77;97600.81;5016128;28;20049;-59
2022/07/19 07:44:39;;;;;;;5.18;4.53;;;;;;;25.53;32.76;97616.09;5019604;28;20109;-70
2022/07/19 07:47:09;;;;;;;4.80;4.50;;;;;;;25.22;33.64;97613.81;5007639;28;20049;-67
2022/07/19 07:49:39;;;;;;;5.68;5.22;;;;;;;25.88;33.86;97621.38;5019117;28;20053;-68
2022/07/19 07:52:06;;;;;;;88.53;11.10;;;;;;;26.01;33.17;97612.84;5013619;28;20057;-59
2022/07/19 07:54:34;;;;;;;5.20;4.80;;;;;;;25.90;32.45;97612.41;5009221;28;20069;-61
2022/07/19 07:57:04;;;;;;;4.80;4.40;;;;;;;25.75;32.76;97571.56;5017510;28;20107;-62
2022/07/19 07:59:31;;;;;;;4.30;4.10;;;;;;;26.31;32.22;97597.97;5040337;28;20064;-67
2022/07/19 08:01:57;;;;;;;8.10;7.47;;;;;;;26.39;32.92;97604.97;5017656;28;20469;-63
2022/07/19 08:04:26;;;;;;;5.15;4.70;;;;;;;26.81;32.50;97609.09;5013585;28;20054;-61
2022/07/19 08:06:54;;;;;;;5.32;5.00;;;;;;;25.38;32.66;97402.19;5012995;28;20048;-63
2022/07/19 08:09:21;;;;;;;8.65;5.47;;;;;;;26.75;32.00;97570.38;5006038;28;20544;-60
2022/07/19 08:11:48;;;;;;;4.72;4.38;;;;;;;25.80;32.34;97500.03;5017158;28;20049;-61
2022/07/19 08:14:14;;;;;;;4.60;4.40;;;;;;;26.36;32.33;97594.53;5019016;28;20081;-60
2022/07/19 08:16:41;;;;;;;4.80;4.47;;;;;;;26.17;32.87;97604.16;5011489;28;20452;-64
2022/07/19 08:19:08;;;;;;;4.80;4.50;;;;;;;26.45;32.79;97608.81;5017809;28;20079;-63
2022/07/19 08:21:35;;;;;;;4.70;4.30;;;;;;;26.36;32.30;97574.66;5013375;28;20428;-59
2022/07/19 08:24:03;;;;;;;4.95;4.35;;;;;;;26.53;31.61;97553.31;5005817;28;20084;-61
2022/07/19 08:26:38;;;;;;;4.40;4.10;;;;;;;26.81;32.77;97592.03;5018597;28;20068;-63
2022/07/19 08:29:05;;;;;;;4.75;4.45;;;;;;;26.75;32.15;97582.53;5006076;28;20073;-61
2022/07/19 08:31:32;;;;;;;5.20;4.90;;;;;;;26.74;31.44;97586.66;5015330;28;20446;-65
2022/07/19 08:33:59;;;;;;;5.20;4.18;;;;;;;27.07;30.90;97576.41;5011676;28;20049;-59
2022/07/19 08:36:26;;;;;;;4.63;4.43;;;;;;;27.19;31.60;97572.66;5016008;28;20053;-59
2022/07/19 08:38:52;;;;;;;5.07;4.60;;;;;;;26.89;31.83;97553.53;5018062;28;20056;-61
2022/07/19 08:41:20;;;;;;;5.13;4.82;;;;;;;27.01;31.53;97561.19;5016056;28;20158;-65
2022/07/19 08:43:49;;;;;;;5.80;5.30;;;;;;;26.89;31.81;97586.91;5018989;28;20053;-58
2022/07/19 08:46:19;;;;;;;4.95;4.55;;;;;;;26.35;32.36;97524.78;5018460;28;20512;-58
2022/07/19 08:48:47;;;;;;;5.80;4.75;;;;;;;26.72;31.72;97572.09;5016963;28;20129;-57
2022/07/19 08:51:18;;;;;;;5.05;4.68;;;;;;;26.65;32.12;97617.88;5012825;28;20049;-69
2022/07/19 08:53:46;;;;;;;5.20;4.70;;;;;;;26.56;32.27;97515.41;5013143;28;20049;-66
2022/07/19 08:58:59;;;;;;;5.80;5.30;;;;;;;26.74;31.60;97552.53;5019752;28;20080;-63
2022/07/19 09:01:26;;;;;;;4.72;4.40;;;;;;;26.21;31.82;97455.06;5017599;28;20050;-67
2022/07/19 09:04:06;;;;;;;4.95;4.60;;;;;;;26.64;31.24;97520.41;5009224;28;20139;-62
2022/07/19 09:06:44;;;;;;;6.13;4.90;;;;;;;26.97;31.75;97571.91;5012994;28;20066;-64
2022/07/19 09:09:13;;;;;;;4.75;4.35;;;;;;;26.36;31.98;97537.72;5005979;28;20056;-63
2022/07/19 09:11:50;;;;;;;5.80;4.65;;;;;;;26.76;31.48;97572.75;5010207;28;20069;-62
2022/07/19 09:14:21;;;;;;;6.32;4.72;;;;;;;26.55;32.01;97567.84;5005838;28;20056;-61
2022/07/19 09:16:52;;;;;;;7.78;4.68;;;;;;;27.05;31.64;97547.63;5011621;28;20046;-64
2022/07/19 09:19:21;;;;;;;6.07;4.65;;;;;;;27.40;31.16;97554.75;5024399;28;20049;-65
2022/07/19 09:22:00;;;;;;;8.38;4.70;;;;;;;27.37;30.74;97513.00;5012696;28;20066;-60
2022/07/19 09:24:30;;;;;;;5.90;5.32;;;;;;;27.61;30.39;97533.13;5008482;28;20057;-60
2022/07/19 09:27:07;;;;;;;7.97;7.28;;;;;;;27.79;30.63;97559.56;5015050;28;20153;-66
2022/07/19 09:29:37;;;;;;;4.95;4.65;;;;;;;27.76;30.96;97566.22;5011820;28;20068;-70
2022/07/19 09:32:17;;;;;;;4.93;4.63;;;;;;;27.40;30.68;97565.31;5025469;28;20089;-64
2022/07/19 09:34:52;;;;;;;5.85;4.90;;;;;;;27.57;31.23;97552.41;5009630;28;20064;-68
2022/07/19 09:37:40;;;;;;;4.90;4.50;;;;;;;28.00;30.58;97553.00;5018655;28;20583;-64
2022/07/19 09:40:08;;;;;;;5.47;5.18;;;;;;;27.78;30.75;97552.31;5011173;28;20053;-70
2022/07/19 09:42:36;;;;;;;5.85;5.18;;;;;;;27.94;31.48;97566.28;5010259;28;20173;-65
2022/07/19 09:45:09;;;;;;;5.45;5.05;;;;;;;27.31;30.43;97489.28;5008056;28;20052;-63
2022/07/19 09:47:38;;;;;;;9.02;5.15;;;;;;;27.86;30.12;97564.97;5010787;28;20526;-61
2022/07/19 09:50:08;;;;;;;7.88;7.07;;;;;;;27.71;30.06;97561.16;5006805;28;20537;-64
2022/07/19 09:52:35;;;;;;;5.85;5.43;;;;;;;28.05;30.00;97554.41;5007992;28;20056;-62
2022/07/19 09:55:12;;;;;;;7.78;6.05;;;;;;;28.20;29.95;97540.34;5023376;28;20053;-62
2022/07/19 09:57:41;;;;;;;6.82;6.15;;;;;;;28.05;29.17;97543.81;5004555;28;20046;-63
2022/07/19 10:00:11;;;;;;;22.17;11.45;;;;;;;28.07;29.52;97495.69;5009476;28;20049;-62
2022/07/19 10:02:43;;;;;;;5.50;5.20;;;;;;;27.79;30.28;97501.84;5007968;28;20045;-60
2022/07/19 10:05:12;;;;;;;5.57;5.07;;;;;;;28.46;29.91;97555.81;5009421;28;20548;-63
2022/07/19 10:07:40;;;;;;;5.03;4.72;;;;;;;28.49;29.68;97549.19;5010365;28;20045;-60
2022/07/19 10:10:10;;;;;;;5.05;4.75;;;;;;;28.03;29.71;97549.19;5017503;28;20100;-66
2022/07/19 10:12:41;;;;;;;6.22;5.43;;;;;;;27.78;30.09;97557.19;5009378;28;20476;-70
2022/07/19 10:15:10;;;;;;;5.20;4.68;;;;;;;27.97;30.08;97502.66;5012065;28;20046;-66
2022/07/19 10:17:41;;;;;;;6.03;5.40;;;;;;;28.26;29.98;97529.88;5005892;28;20509;-71
2022/07/19 10:20:10;;;;;;;10.85;7.85;;;;;;;28.36;29.91;97545.72;5011320;28;20150;-60
2022/07/19 10:22:39;;;;;;;8.23;6.57;;;;;;;28.20;30.43;97520.38;5008222;28;20054;-66
2022/07/19 10:25:06;;;;;;;5.10;4.80;;;;;;;28.73;30.23;97547.25;5006435;28;20053;-61
2022/07/19 10:27:32;;;;;;;5.50;5.20;;;;;;;28.94;29.84;97540.56;5008370;28;20050;-63
2022/07/19 10:30:16;;;;;;;5.97;5.68;;;;;;;28.85;29.71;97509.22;5004644;28;20081;-63
2022/07/19 10:32:45;;;;;;;5.88;5.32;;;;;;;28.83;29.60;97489.72;5015061;28;20519;-62
2022/07/19 10:35:27;;;;;;;5.30;5.00;;;;;;;28.43;30.27;97533.97;5011440;28;20045;-66
2022/07/19 10:38:01;;;;;;;5.65;5.20;;;;;;;28.38;30.11;97515.47;5005088;28;20352;-61
2022/07/19 10:40:44;;;;;;;5.40;5.10;;;;;;;28.33;30.20;97523.88;5012037;28;20049;-60
2022/07/19 10:43:18;;;;;;;6.03;5.50;;;;;;;28.54;29.22;97511.50;5004110;28;20054;-67
2022/07/19 10:45:57;;;;;;;4.97;4.63;;;;;;;28.35;30.30;97521.31;5008990;28;20640;-65
2022/07/19 10:48:40;;;;;;;6.70;5.70;;;;;;;28.13;29.84;97493.81;5004023;28;20081;-63
2022/07/19 10:51:26;;;;;;;5.05;4.85;;;;;;;27.83;30.44;97514.66;5013526;28;20045;-64
2022/07/19 10:54:00;;;;;;;5.38;4.88;;;;;;;28.26;29.92;97505.03;5021052;28;20061;-65
2022/07/19 10:56:34;;;;;;;5.53;5.10;;;;;;;28.75;30.07;97511.31;5013572;28;20133;-64
2022/07/19 10:59:11;;;;;;;;;;;;;;;28.60;29.46;97518.13;5004114;28;20068;-68
2022/07/19 11:01:54;;;;;;;6.10;5.63;;;;;;;28.65;29.63;97477.56;5014047;28;20285;-71
2022/07/19 11:04:29;;;;;;;5.10;4.88;;;;;;;28.48;29.24;97485.69;5008262;28;20053;-63
2022/07/19 11:07:28;;;;;;;5.28;4.78;;;;;;;28.81;29.11;97514.28;5011715;28;20057;-61
2022/07/19 11:09:57;;;;;;;5.15;4.85;;;;;;;28.66;29.54;97484.88;5015951;28;20049;-65
2022/07/19 11:12:29;;;;;;;5.78;5.47;;;;;;;28.74;28.83;97486.13;5008107;28;20050;-64
2022/07/19 11:14:59;;;;;;;5.40;5.10;;;;;;;28.57;29.18;97453.50;5004708;28;20688;-65
2022/07/19 11:17:50;;;;;;;4.72;4.38;;;;;;;28.08;29.45;97502.19;5003746;28;20054;-69
2022/07/19 11:20:19;;;;;;;7.22;6.63;;;;;;;28.46;29.84;97476.81;5004752;28;20061;-65
2022/07/19 11:22:48;;;;;;;4.93;4.65;;;;;;;28.61;28.95;97496.91;5017088;28;20057;-66
2022/07/19 11:25:16;;;;;;;5.65;5.32;;;;;;;28.73;29.24;97502.41;5021112;28;20041;-68
2022/07/19 11:27:45;;;;;;;6.25;5.78;;;;;;;28.70;29.19;97494.03;5013612;28;20057;-63
2022/07/19 11:30:14;;;;;;;5.68;5.32;;;;;;;28.52;29.47;97509.13;5014397;28;20057;-68
2022/07/19 11:32:42;;;;;;;5.65;5.15;;;;;;;28.71;29.55;97504.97;5011318;28;20049;-64
2022/07/19 11:35:14;;;;;;;6.68;5.05;;;;;;;28.15;29.35;97422.88;5018801;28;20460;-62
2022/07/19 11:37:42;;;;;;;5.32;5.03;;;;;;;28.44;29.93;97439.41;5007302;28;20054;-64
2022/07/19 11:40:11;;;;;;;5.30;5.00;;;;;;;28.70;30.52;97417.03;5008216;28;20092;-65
2022/07/19 11:42:43;;;;;;;5.45;5.05;;;;;;;28.62;29.47;97495.63;5010639;28;20068;-67
2022/07/19 11:45:30;;;;;;;5.85;5.55;;;;;;;28.80;28.82;97469.94;5016343;28;20046;-64